Time;durP1;ratioP1;P1;durP2;ratioP2;P2;SDS_P1;SDS_P2;PMS_P1;PMS_P2;Temp;Humidity;BMP_temperature;BMP_pressure;BME280_temperature;BME280_humidity;BME280_pressure;Samples;Min_cycle;Max_cycle;Signal;HPM_P1;HPM_P2
2022/03/31 00:00:52;;;;;;;;;;;;;;;9.98;56.24;99555.91;5030393;28;20003;-80
2022/03/31 00:03:19;;;;;;;;;;;;;;;10.15;56.03;99556.13;5025676;28;20011;-80
2022/03/31 00:05:44;;;;;;;;;;;;;;;10.14;55.81;99557.00;5030723;28;19968;-79
2022/03/31 00:08:11;;;;;;;;;;;;;;;9.92;56.78;99544.94;5027450;28;19979;-79
2022/03/31 00:10:38;;;;;;;;;;;;;;;9.98;56.92;99553.31;5029557;28;19929;-75
2022/03/31 00:13:05;;;;;;;;;;;;;;;10.13;56.86;99542.38;5025244;28;19921;-75
2022/03/31 00:15:30;;;;;;;;;;;;;;;10.01;57.27;99539.38;5030706;28;19975;-75
2022/03/31 00:17:58;;;;;;;;;;;;;;;9.89;58.80;99541.56;5020148;28;20374;-75
2022/03/31 00:20:24;;;;;;;;;;;;;;;9.80;58.24;99535.81;5025842;28;19991;-78
2022/03/31 00:22:49;;;;;;;;;;;;;;;9.89;57.63;99526.00;5031169;28;19929;-78
2022/03/31 00:25:15;;;;;;;;;;;;;;;9.80;58.21;99526.31;5031614;28;19943;-79
2022/03/31 00:27:41;;;;;;;;;;;;;;;9.82;58.10;99531.41;5027089;28;19944;-79
2022/03/31 00:30:07;;;;;;;;;;;;;;;9.82;58.09;99521.03;5028047;28;19924;-79
2022/03/31 00:32:33;;;;;;;;;;;;;;;10.01;57.54;99516.03;5031330;28;19921;-79
2022/03/31 00:34:58;;;;;;;;;;;;;;;9.76;57.93;99521.28;5048369;28;19970;-79
2022/03/31 00:37:23;;;;;;;;;;;;;;;9.72;58.65;99522.31;5025243;28;20290;-79
2022/03/31 00:39:49;;;;;;;;;;;;;;;9.69;57.62;99522.41;5036367;28;19928;-78
2022/03/31 00:42:15;;;;;;;;;;;;;;;9.84;58.70;99529.59;5021387;28;20386;-78
2022/03/31 00:44:41;;;;;;;;;;;;;;;9.62;58.46;99532.16;5023976;28;19928;-78
2022/03/31 00:47:07;;;;;;;;;;;;;;;9.61;58.54;99530.47;5028175;28;19936;-78
2022/03/31 00:49:34;;;;;;;;;;;;;;;9.74;57.69;99525.69;5027801;28;20366;-78
2022/03/31 00:52:00;;;;;;;;;;;;;;;9.60;58.85;99531.34;5026777;28;19956;-78
2022/03/31 00:54:26;;;;;;;;;;;;;;;9.50;59.53;99526.56;5027785;28;20333;-80
2022/03/31 00:56:52;;;;;;;;;;;;;;;9.37;60.45;99526.16;5021509;28;19921;-78
2022/03/31 00:59:18;;;;;;;;;;;;;;;9.72;59.21;99517.94;5030655;28;20394;-75
2022/03/31 01:01:44;;;;;;;;;;;;;;;9.63;59.90;99517.47;5033442;28;19925;-75
2022/03/31 01:04:10;;;;;;;;;;;;;;;9.72;59.51;99517.13;5024043;28;19983;-75
2022/03/31 01:06:35;;;;;;;;;;;;;;;9.81;59.17;99511.59;5024477;28;19917;-75
2022/03/31 01:09:04;;;;;;;;;;;;;;;9.85;59.00;99513.16;5023270;28;19925;-75
2022/03/31 01:11:30;;;;;;;;;;;;;;;9.74;59.17;99512.72;5027964;28;19924;-75
2022/03/31 01:13:55;;;;;;;;;;;;;;;9.80;59.85;99512.47;5039118;28;19991;-79
2022/03/31 01:16:21;;;;;;;;;;;;;;;9.80;60.21;99500.38;5040414;28;19922;-80
2022/03/31 01:18:47;;;;;;;;;;;;;;;9.91;59.82;99494.78;5024852;28;19921;-80
2022/03/31 01:21:12;;;;;;;;;;;;;;;9.94;59.32;99496.41;5023857;28;20267;-78
2022/03/31 01:23:37;;;;;;;;;;;;;;;9.92;59.21;99495.63;5020452;28;20380;-77
2022/03/31 01:26:08;;;;;;;;;;;;;;;9.80;60.58;99491.75;5020678;28;19971;-77
2022/03/31 01:28:35;;;;;;;;;;;;;;;9.87;60.69;99494.03;5028142;28;19974;-77
2022/03/31 01:31:00;;;;;;;;;;;;;;;9.74;61.21;99491.97;5025907;28;19948;-77
2022/03/31 01:33:25;;;;;;;;;;;;;;;9.85;60.85;99489.81;5025366;28;20308;-77
2022/03/31 01:35:50;;;;;;;;;;;;;;;9.73;61.20;99487.66;5026666;28;19947;-77
2022/03/31 01:38:18;;;;;;;;;;;;;;;9.80;59.91;99483.97;5028098;28;19996;-77
2022/03/31 01:40:43;;;;;;;;;;;;;;;9.73;61.65;99483.34;5033540;28;19992;-77
2022/03/31 01:43:08;;;;;;;;;;;;;;;9.79;61.61;99482.25;5019721;28;19922;-77
2022/03/31 01:45:34;;;;;;;;;;;;;;;9.86;60.51;99475.94;5024362;28;19955;-77
2022/03/31 01:47:59;;;;;;;;;;;;;;;9.83;61.11;99476.91;5015966;28;20390;-77
2022/03/31 01:50:24;;;;;;;;;;;;;;;9.74;61.96;99471.22;5021648;28;20004;-78
2022/03/31 01:52:50;;;;;;;;;;;;;;;9.62;61.33;99467.34;5028309;28;19936;-78
2022/03/31 01:55:15;;;;;;;;;;;;;;;9.62;61.83;99469.94;5027549;28;19978;-78
2022/03/31 01:57:41;;;;;;;;;;;;;;;9.77;62.00;99468.50;5033543;28;20413;-78
2022/03/31 02:00:07;;;;;;;;;;;;;;;9.72;60.79;99465.25;5029296;28;20314;-79
2022/03/31 02:02:32;;;;;;;;;;;;;;;9.68;61.99;99474.03;5033851;28;19979;-78
2022/03/31 02:04:57;;;;;;;;;;;;;;;9.55;62.78;99465.88;5032252;28;19975;-75
2022/03/31 02:07:23;;;;;;;;;;;;;;;9.53;62.54;99475.47;5029183;28;19931;-75
2022/03/31 02:09:49;;;;;;;;;;;;;;;9.73;62.26;99469.53;5033384;28;19931;-75
2022/03/31 02:12:14;;;;;;;;;;;;;;;9.68;62.89;99464.53;5032434;28;19928;-75
2022/03/31 02:14:41;;;;;;;;;;;;;;;9.64;63.35;99459.50;5046405;28;20402;-75
2022/03/31 02:17:07;;;;;;;;;;;;;;;9.64;63.55;99459.50;5047647;28;20297;-75
2022/03/31 02:19:33;;;;;;;;;;;;;;;9.67;63.48;99459.38;5025337;28;19936;-75
2022/03/31 02:21:59;;;;;;;;;;;;;;;9.62;63.17;99456.13;5043603;28;19917;-75
2022/03/31 02:24:24;;;;;;;;;;;;;;;9.73;62.45;99457.41;5027658;28;19925;-75
2022/03/31 02:26:49;;;;;;;;;;;;;;;9.71;62.51;99448.84;5033664;28;19929;-75
2022/03/31 02:29:15;;;;;;;;;;;;;;;9.45;62.97;99448.16;5027147;28;19917;-75
2022/03/31 02:31:40;;;;;;;;;;;;;;;9.51;62.80;99455.69;5029003;28;19925;-77
2022/03/31 02:34:05;;;;;;;;;;;;;;;9.63;62.52;99448.28;5032692;28;19924;-77
2022/03/31 02:36:31;;;;;;;;;;;;;;;9.51;63.84;99451.34;5026705;28;19921;-77
2022/03/31 02:38:56;;;;;;;;;;;;;;;9.41;63.92;99444.81;5034298;28;19974;-79
2022/03/31 02:41:21;;;;;;;;;;;;;;;9.44;63.68;99446.44;5032349;28;20356;-80
2022/03/31 02:43:47;;;;;;;;;;;;;;;9.45;63.79;99442.97;5026917;28;19920;-75
2022/03/31 02:46:12;;;;;;;;;;;;;;;9.45;63.46;99436.03;5032145;28;19924;-75
2022/03/31 02:48:38;;;;;;;;;;;;;;;9.59;63.47;99440.69;5034738;28;20075;-79
2022/03/31 02:51:03;;;;;;;;;;;;;;;9.64;63.45;99431.81;5028709;28;20645;-78
2022/03/31 02:56:12;;;;;;;;;;;;;;;9.43;63.86;99434.38;5035547;28;20540;-78
2022/03/31 02:58:38;;;;;;;;;;;;;;;9.56;63.31;99422.66;5038242;28;19917;-78
2022/03/31 03:01:03;;;;;;;;;;;;;;;9.71;62.31;99425.50;5030873;28;20457;-78
2022/03/31 03:03:29;;;;;;;;;;;;;;;9.75;62.72;99424.47;5033021;28;19951;-78
2022/03/31 03:05:55;;;;;;;;;;;;;;;9.48;63.31;99424.69;5023888;28;19971;-77
2022/03/31 03:08:20;;;;;;;;;;;;;;;9.40;63.64;99417.19;5027598;28;19917;-77
2022/03/31 03:10:46;;;;;;;;;;;;;;;9.39;62.50;99415.53;5025742;28;19976;-77
2022/03/31 03:13:11;;;;;;;;;;;;;;;9.66;61.55;99411.03;5027528;28;19990;-77
2022/03/31 03:15:37;;;;;;;;;;;;;;;9.55;61.63;99408.84;5021766;28;19933;-75
2022/03/31 03:18:02;;;;;;;;;;;;;;;9.57;61.72;99411.41;5057645;28;20354;-75
2022/03/31 03:20:28;;;;;;;;;;;;;;;9.65;60.91;99411.94;5025405;28;20522;-75
2022/03/31 03:22:54;;;;;;;;;;;;;;;9.62;61.27;99414.66;5030360;28;19976;-75
2022/03/31 03:25:20;;;;;;;;;;;;;;;9.65;61.43;99412.78;5029915;28;19963;-79
2022/03/31 03:27:46;;;;;;;;;;;;;;;9.63;61.34;99417.16;5030746;28;20439;-77
2022/03/31 03:30:12;;;;;;;;;;;;;;;9.47;62.08;99407.44;5028357;28;19968;-77
2022/03/31 03:32:38;;;;;;;;;;;;;;;9.45;61.49;99404.09;5024172;28;19976;-77
2022/03/31 03:35:04;;;;;;;;;;;;;;;9.46;61.53;99404.00;5033696;28;19952;-75
2022/03/31 03:37:29;;;;;;;;;;;;;;;9.49;61.75;99403.91;5022872;28;20000;-75
2022/03/31 03:39:54;;;;;;;;;;;;;;;9.57;61.13;99404.44;5040244;28;20389;-75
2022/03/31 03:42:20;;;;;;;;;;;;;;;9.63;60.81;99406.78;5024196;28;19922;-75
2022/03/31 03:44:45;;;;;;;;;;;;;;;9.38;61.99;99408.66;5034411;28;20362;-78
2022/03/31 03:47:10;;;;;;;;;;;;;;;9.52;61.49;99402.94;5028554;28;19924;-78
2022/03/31 03:49:36;;;;;;;;;;;;;;;9.49;61.53;99408.22;5031488;28;19953;-79
2022/03/31 03:52:01;;;;;;;;;;;;;;;9.53;60.68;99402.03;5030491;28;20032;-78
2022/03/31 03:54:27;;;;;;;;;;;;;;;9.48;61.57;99410.00;5031742;28;19929;-79
2022/03/31 03:56:52;;;;;;;;;;;;;;;9.54;61.00;99409.75;5034374;28;19980;-79
2022/03/31 03:59:18;;;;;;;;;;;;;;;9.52;60.74;99401.19;5032862;28;20396;-75
2022/03/31 04:01:44;;;;;;;;;;;;;;;9.31;61.45;99410.63;5031395;28;19928;-75
2022/03/31 04:04:10;;;;;;;;;;;;;;;9.33;61.70;99410.56;5024528;28;19928;-75
2022/03/31 04:06:36;;;;;;;;;;;;;;;9.31;61.31;99396.81;5031035;28;19925;-75
2022/03/31 04:09:01;;;;;;;;;;;;;;;9.48;60.83;99398.78;5026564;28;19928;-75
2022/03/31 04:11:27;;;;;;;;;;;;;;;9.28;61.97;99400.38;5023141;28;19972;-75
2022/03/31 04:13:52;;;;;;;;;;;;;;;9.50;60.76;99397.81;5027135;28;19924;-75
2022/03/31 04:16:17;;;;;;;;;;;;;;;9.38;61.14;99400.03;5020031;28;19921;-75
2022/03/31 04:18:42;;;;;;;;;;;;;;;9.47;60.83;99392.75;5026049;28;20368;-77
2022/03/31 04:21:10;;;;;;;;;;;;;;;9.48;60.84;99391.84;5025478;28;19921;-78
2022/03/31 04:23:35;;;;;;;;;;;;;;;9.33;61.49;99395.84;5025545;28;19986;-78
2022/03/31 04:26:00;;;;;;;;;;;;;;;9.40;61.06;99399.06;5024302;28;19964;-75
2022/03/31 04:28:26;;;;;;;;;;;;;;;9.32;61.73;99393.31;5024740;28;19925;-75
2022/03/31 04:30:51;;;;;;;;;;;;;;;9.24;62.75;99395.38;5026487;28;19935;-75
2022/03/31 04:33:18;;;;;;;;;;;;;;;9.18;62.39;99388.66;5041457;28;20131;-75
2022/03/31 04:35:43;;;;;;;;;;;;;;;9.31;61.17;99396.81;5025037;28;19921;-75
2022/03/31 04:38:09;;;;;;;;;;;;;;;9.33;60.82;99379.47;5027524;28;20506;-75
2022/03/31 04:40:34;;;;;;;;;;;;;;;9.30;61.72;99387.38;5029254;28;20369;-75
2022/03/31 04:42:59;;;;;;;;;;;;;;;9.22;62.04;99387.63;5039739;28;19981;-80
2022/03/31 04:45:25;;;;;;;;;;;;;;;9.21;61.95;99385.97;5022683;28;19921;-79
2022/03/31 04:47:50;;;;;;;;;;;;;;;9.22;62.42;99392.81;5028296;28;20325;-77
2022/03/31 04:50:15;;;;;;;;;;;;;;;9.16;62.51;99390.47;5025757;28;19980;-77
2022/03/31 04:52:41;;;;;;;;;;;;;;;9.29;61.42;99390.84;5043676;28;19959;-80
2022/03/31 04:55:07;;;;;;;;;;;;;;;9.27;61.82;99392.66;5018653;28;19943;-80
2022/03/31 04:57:32;;;;;;;;;;;;;;;9.35;61.45;99391.47;5033111;28;19921;-80
2022/03/31 04:59:57;;;;;;;;;;;;;;;9.30;61.40;99392.56;5028429;28;19925;-80
2022/03/31 05:02:23;;;;;;;;;;;;;;;9.24;61.38;99393.63;5021823;28;20338;-80
2022/03/31 05:04:48;;;;;;;;;;;;;;;9.14;62.10;99387.09;5023116;28;19925;-77
2022/03/31 05:07:13;;;;;;;;;;;;;;;9.28;61.48;99391.75;5022999;28;20295;-77
2022/03/31 05:09:39;;;;;;;;;;;;;;;9.12;61.58;99383.72;5026001;28;19964;-77
2022/03/31 05:12:05;;;;;;;;;;;;;;;9.25;61.30;99390.13;5031856;28;21426;-77
2022/03/31 05:14:31;;;;;;;;;;;;;;;9.39;61.36;99392.22;5029193;28;19925;-77
2022/03/31 05:16:56;;;;;;;;;;;;;;;9.38;61.49;99395.69;5021867;28;20275;-77
2022/03/31 05:19:21;;;;;;;;;;;;;;;9.12;62.12;99394.06;5030434;28;20007;-77
2022/03/31 05:21:47;;;;;;;;;;;;;;;9.11;61.90;99399.31;5024962;28;19961;-80
2022/03/31 05:24:12;;;;;;;;;;;;;;;9.12;61.46;99394.06;5028283;28;19967;-80
2022/03/31 05:26:37;;;;;;;;;;;;;;;9.24;61.03;99391.03;5034114;28;20507;-79
2022/03/31 05:29:03;;;;;;;;;;;;;;;9.32;61.11;99389.00;5026832;28;20341;-80
2022/03/31 05:31:28;;;;;;;;;;;;;;;9.37;61.07;99386.22;5031816;28;19925;-80
2022/03/31 05:33:53;;;;;;;;;;;;;;;9.08;61.89;99400.25;5031821;28;20020;-80
2022/03/31 05:36:19;;;;;;;;;;;;;;;9.28;61.43;99382.22;5026619;28;19936;-80
2022/03/31 05:38:44;;;;;;;;;;;;;;;9.10;61.96;99397.59;5028499;28;19963;-79
2022/03/31 05:41:09;;;;;;;;;;;;;;;9.18;62.15;99387.81;5029508;28;19917;-78
2022/03/31 05:43:34;;;;;;;;;;;;;;;9.20;61.67;99391.19;5033636;28;19921;-80
2022/03/31 05:46:00;;;;;;;;;;;;;;;9.16;61.77;99382.69;5032101;28;19928;-75
2022/03/31 05:48:25;;;;;;;;;;;;;;;9.25;61.69;99386.66;5030414;28;20813;-75
2022/03/31 05:50:50;;;;;;;;;;;;;;;9.27;61.70;99385.75;5026846;28;19925;-75
2022/03/31 05:53:16;;;;;;;;;;;;;;;9.31;61.32;99383.84;5029542;28;19916;-75
2022/03/31 05:55:43;;;;;;;;;;;;;;;9.23;61.85;99383.31;5029331;28;19979;-74
2022/03/31 05:58:08;;;;;;;;;;;;;;;9.15;62.09;99388.78;5054771;28;19925;-75
2022/03/31 06:00:34;;;;;;;;;;;;;;;9.22;61.63;99382.44;5029511;28;19917;-75
2022/03/31 06:02:59;;;;;;;;;;;;;;;9.19;62.24;99379.97;5028967;28;19967;-75
2022/03/31 06:05:25;;;;;;;;;;;;;;;9.03;62.24;99390.97;5031063;28;19972;-75
2022/03/31 06:07:53;;;;;;;;;;;;;;;8.93;62.44;99385.28;5029473;28;19987;-79
2022/03/31 06:10:19;;;;;;;;;;;;;;;9.25;61.53;99382.34;5028650;28;19921;-75
2022/03/31 06:12:45;;;;;;;;;;;;;;;9.27;61.57;99382.31;5027919;28;19933;-77
2022/03/31 06:15:10;;;;;;;;;;;;;;;9.21;61.89;99387.72;5031478;28;19925;-77
2022/03/31 06:17:40;;;;;;;;;;;;;;;9.27;61.98;99380.56;5025545;28;19925;-77
2022/03/31 06:20:06;;;;;;;;;;;;;;;9.11;62.58;99386.34;5028224;28;19909;-77
2022/03/31 06:22:31;;;;;;;;;;;;;;;8.97;62.56;99386.00;5025093;28;20439;-77
2022/03/31 06:24:56;;;;;;;;;;;;;;;9.13;62.86;99385.38;5028743;28;19921;-77
2022/03/31 06:27:22;;;;;;;;;;;;;;;9.14;62.60;99381.06;5029793;28;19964;-77
2022/03/31 06:29:48;;;;;;;;;;;;;;;9.13;62.03;99387.97;5039405;28;19979;-78
2022/03/31 06:32:14;;;;;;;;;;;;;;;9.16;62.02;99382.69;5033144;28;19932;-78
2022/03/31 06:34:39;;;;;;;;;;;;;;;9.31;61.17;99379.53;5029217;28;20274;-78
2022/03/31 06:37:05;;;;;;;;;;;;;;;9.20;61.48;99384.25;5044378;28;20612;-78
2022/03/31 06:39:30;;;;;;;;;;;;;;;9.26;61.31;99383.19;5047112;28;21117;-78
2022/03/31 06:41:55;;;;;;;;;;;;;;;9.07;61.61;99388.19;5042109;28;19928;-79
2022/03/31 06:44:21;;;;;;;;;;;;;;;9.34;60.91;99381.16;5030437;28;19955;-78
2022/03/31 06:46:46;;;;;;;;;;;;;;;9.38;60.40;99384.47;5022339;28;19980;-75
2022/03/31 06:49:12;;;;;;;;;;;;;;;9.39;60.08;99370.63;5027070;28;19929;-80
2022/03/31 06:51:37;;;;;;;;;;;;;;;9.28;60.73;99373.59;5027539;28;19975;-75
2022/03/31 06:54:03;;;;;;;;;;;;;;;9.39;60.51;99374.06;5029138;28;19922;-78
2022/03/31 06:56:29;;;;;;;;;;;;;;;9.20;60.62;99373.06;5029818;28;19960;-78
2022/03/31 06:58:55;;;;;;;;;;;;;;;9.23;60.75;99373.78;5030052;28;19956;-75
2022/03/31 07:01:20;;;;;;;;;;;;;;;9.39;60.46;99373.22;5026702;28;19971;-77
2022/03/31 07:03:45;;;;;;;;;;;;;;;9.06;60.92;99373.56;5025507;28;20052;-77
2022/03/31 07:06:11;;;;;;;;;;;;;;;9.10;61.74;99371.69;5020830;28;19935;-77
2022/03/31 07:08:36;;;;;;;;;;;;;;;9.26;60.15;99371.09;5030895;28;19925;-79
2022/03/31 07:11:05;;;;;;;;;;;;;;;9.08;60.63;99376.94;5023682;28;20369;-80
2022/03/31 07:13:31;;;;;;;;;;;;;;;9.30;60.09;99377.84;5029595;28;19921;-77
2022/03/31 07:15:57;;;;;;;;;;;;;;;9.17;60.48;99374.03;5028707;28;20274;-78
2022/03/31 07:18:22;;;;;;;;;;;;;;;9.09;60.56;99378.66;5026871;28;19925;-78
2022/03/31 07:20:47;;;;;;;;;;;;;;;9.06;59.96;99381.34;5027259;28;20011;-78
2022/03/31 07:23:13;;;;;;;;;;;;;;;9.31;59.21;99383.84;5024863;28;19919;-80
2022/03/31 07:25:38;;;;;;;;;;;;;;;9.17;60.04;99383.53;5029412;28;20317;-79
2022/03/31 07:28:04;;;;;;;;;;;;;;;9.23;60.29;99388.50;5044347;28;19925;-79
2022/03/31 07:30:29;;;;;;;;;;;;;;;9.09;60.07;99389.00;5024188;28;19978;-80
2022/03/31 07:33:00;;;;;;;;;;;;;;;9.25;59.11;99390.13;5039003;28;19921;-75
2022/03/31 07:35:26;;;;;;;;;;;;;;;9.32;58.87;99385.56;5030274;28;19921;-75
2022/03/31 07:37:52;;;;;;;;;;;;;;;9.32;58.22;99386.41;5022735;28;19925;-75
2022/03/31 07:40:18;;;;;;;;;;;;;;;9.29;58.55;99388.25;5029945;28;20344;-75
2022/03/31 07:42:44;;;;;;;;;;;;;;;9.28;58.60;99389.16;5025691;28;19935;-75
2022/03/31 07:45:09;;;;;;;;;;;;;;;9.26;57.91;99381.44;5028930;28;19928;-75
2022/03/31 07:47:37;;;;;;;;;;;;;;;9.07;58.45;99385.59;5030446;28;19920;-75
2022/03/31 07:50:03;;;;;;;;;;;;;;;8.96;58.56;99381.72;5041258;28;21154;-75
2022/03/31 07:52:28;;;;;;;;;;;;;;;9.18;58.87;99382.63;5039861;28;20012;-75
2022/03/31 07:54:53;;;;;;;;;;;;;;;9.27;59.15;99380.56;5024109;28;19921;-75
2022/03/31 07:57:19;;;;;;;;;;;;;;;9.14;58.59;99379.31;5027307;28;20457;-78
2022/03/31 07:59:44;;;;;;;;;;;;;;;9.31;58.64;99391.63;5042539;28;20039;-78
2022/03/31 08:02:09;;;;;;;;;;;;;;;9.27;59.62;99390.06;5032443;28;19932;-78
2022/03/31 08:04:35;;;;;;;;;;;;;;;9.26;58.60;99383.19;5027152;28;20305;-78
2022/03/31 08:07:00;;;;;;;;;;;;;;;9.30;58.23;99390.81;5019703;28;19921;-80
2022/03/31 08:09:26;;;;;;;;;;;;;;;9.42;58.11;99389.50;5031882;28;19927;-79
2022/03/31 08:11:51;;;;;;;;;;;;;;;9.11;59.22;99388.94;5020398;28;19964;-75
2022/03/31 08:14:17;;;;;;;;;;;;;;;9.24;58.65;99385.84;5025770;28;20342;-75
2022/03/31 08:16:46;;;;;;;;;;;;;;;9.29;58.59;99380.47;5027950;28;20385;-75
2022/03/31 08:19:12;;;;;;;;;;;;;;;9.10;58.17;99392.41;5023527;28;19957;-75
2022/03/31 08:21:37;;;;;;;;;;;;;;;9.44;57.02;99379.91;5035298;28;19960;-75
2022/03/31 08:24:03;;;;;;;;;;;;;;;9.38;58.68;99381.88;5032170;28;19925;-78
2022/03/31 08:26:31;;;;;;;;;;;;;;;9.27;60.11;99383.16;5032410;28;19940;-80
2022/03/31 08:28:56;;;;;;;;;;;;;;;9.23;59.64;99383.31;5032362;28;19940;-75
2022/03/31 08:31:22;;;;;;;;;;;;;;;9.21;59.27;99382.53;5048210;28;19932;-80
2022/03/31 08:33:48;;;;;;;;;;;;;;;9.41;58.33;99379.16;5022635;28;19960;-79
2022/03/31 08:36:13;;;;;;;;;;;;;;;9.38;60.09;99389.66;5034555;28;20454;-79
2022/03/31 08:38:38;;;;;;;;;;;;;;;9.31;58.49;99389.88;5028458;28;20017;-80
2022/03/31 08:41:04;;;;;;;;;;;;;;;9.34;58.39;99386.31;5027132;28;20289;-80
2022/03/31 08:43:30;;;;;;;;;;;;;;;9.40;57.96;99387.84;5026342;28;20494;-80
2022/03/31 08:45:55;;;;;;;;;;;;;;;9.42;58.03;99391.25;5026815;28;20052;-79
2022/03/31 08:48:23;;;;;;;;;;;;;;;9.28;57.72;99387.41;5026119;28;19917;-79
2022/03/31 08:50:48;;;;;;;;;;;;;;;9.27;57.58;99397.84;5027308;28;20401;-80
2022/03/31 08:53:13;;;;;;;;;;;;;;;9.33;56.59;99393.25;5022273;28;20051;-75
2022/03/31 08:55:39;;;;;;;;;;;;;;;9.39;58.72;99401.72;5039450;28;20336;-75
2022/03/31 08:58:04;;;;;;;;;;;;;;;9.28;57.75;99402.97;5025455;28;20012;-77
2022/03/31 09:00:30;;;;;;;;;;;;;;;9.35;58.25;99395.81;5035179;28;19936;-80
2022/03/31 09:03:00;;;;;;;;;;;;;;;9.53;58.43;99391.66;5037439;28;19921;-80
2022/03/31 09:05:26;;;;;;;;;;;;;;;9.62;58.21;99393.91;5027761;28;20284;-80
2022/03/31 09:07:59;;;;;;;;;;;;;;;9.68;57.32;99393.66;5032056;28;19925;-80
2022/03/31 09:10:44;;;;;;;;;;;;;;;9.77;56.29;99393.31;5018806;28;19925;-80
2022/03/31 09:13:22;;;;;;;;;;;;;;;9.80;56.53;99388.00;5029139;28;20047;-75
2022/03/31 09:15:51;;;;;;;;;;;;;;;9.80;57.24;99382.81;5026356;28;19972;-76
2022/03/31 09:18:19;;;;;;;;;;;;;;;9.80;58.34;99395.78;5047932;28;19928;-77
2022/03/31 09:20:44;;;;;;;;;;;;;;;9.73;58.23;99391.72;5034178;28;19917;-77
2022/03/31 09:23:17;;;;;;;;;;;;;;;9.87;57.42;99392.88;5028519;28;19924;-77
2022/03/31 09:25:43;;;;;;;;;;;;;;;9.87;57.86;99392.03;5034792;28;20249;-77
2022/03/31 09:28:14;;;;;;;;;;;;;;;9.81;58.35;99394.88;5035758;28;20419;-75
2022/03/31 09:30:43;;;;;;;;;;;;;;;9.57;58.23;99393.25;5032913;28;19925;-75
2022/03/31 09:33:09;;;;;;;;;;;;;;;9.68;59.31;99399.69;5023302;28;20389;-80
2022/03/31 09:35:34;;;;;;;;;;;;;;;9.69;58.55;99390.19;5035626;28;19960;-76
2022/03/31 09:38:10;;;;;;;;;;;;;;;9.73;56.89;99395.16;5041410;28;20306;-80
2022/03/31 09:40:35;;;;;;;;;;;;;;;9.75;57.05;99397.72;5028564;28;19943;-80
2022/03/31 09:43:00;;;;;;;;;;;;;;;9.79;56.75;99396.66;5037590;28;19917;-80
2022/03/31 09:45:39;;;;;;;;;;;;;;;9.72;57.15;99396.06;5034655;28;19999;-75
2022/03/31 09:48:05;;;;;;;;;;;;;;;9.65;57.78;99409.34;5036214;28;19925;-75
2022/03/31 09:50:34;;;;;;;;;;;;;;;9.86;56.53;99395.53;5028943;28;20521;-76
2022/03/31 09:53:00;;;;;;;;;;;;;;;9.73;56.29;99396.91;5039549;28;20556;-77
2022/03/31 09:55:25;;;;;;;;;;;;;;;9.63;57.30;99400.78;5030207;28;19953;-78
2022/03/31 09:57:52;;;;;;;;;;;;;;;9.53;57.64;99397.69;5029827;28;19956;-79
2022/03/31 10:00:17;;;;;;;;;;;;;;;9.48;57.94;99398.78;5031080;28;19925;-79
2022/03/31 10:02:44;;;;;;;;;;;;;;;9.41;58.25;99400.75;5035620;28;19921;-80
2022/03/31 10:05:10;;;;;;;;;;;;;;;9.41;57.14;99392.13;5043770;28;19925;-80
2022/03/31 10:07:36;;;;;;;;;;;;;;;9.49;56.87;99400.44;5039401;28;19949;-75
2022/03/31 10:10:02;;;;;;;;;;;;;;;9.70;57.13;99400.47;5026664;28;19925;-80
2022/03/31 10:12:32;;;;;;;;;;;;;;;9.77;56.82;99398.50;5040118;28;19975;-78
2022/03/31 10:15:00;;;;;;;;;;;;;;;9.77;56.01;99398.50;5040127;28;19925;-79
2022/03/31 10:17:29;;;;;;;;;;;;;;;9.86;56.48;99398.13;5032440;28;19921;-79
2022/03/31 10:20:06;;;;;;;;;;;;;;;9.48;56.33;99402.22;5025974;28;19976;-75
2022/03/31 10:25:15;;;;;;;;;;;;;;;9.75;55.65;99395.94;5034154;28;19946;-75
2022/03/31 10:27:45;;;;;;;;;;;;;;;9.49;57.10;99392.66;5034770;28;20196;-75
2022/03/31 10:30:15;;;;;;;;;;;;;;;9.74;57.60;99404.66;5023101;28;19963;-75
2022/03/31 10:32:50;;;;;;;;;;;;;;;9.67;58.23;99399.75;5037321;28;19921;-80
2022/03/31 10:35:22;;;;;;;;;;;;;;;9.77;58.14;99396.75;5044486;28;19913;-75
2022/03/31 10:37:48;;;;;;;;;;;;;;;9.87;58.45;99394.63;5039897;28;19928;-75
2022/03/31 10:40:13;;;;;;;;;;;;;;;9.76;57.45;99400.22;5023542;28;19925;-80
2022/03/31 10:42:39;;;;;;;;;;;;;;;9.63;58.20;99388.63;5028764;28;19921;-80
2022/03/31 10:45:06;;;;;;;;;;;;;;;9.52;58.77;99387.38;5032661;28;19925;-80
2022/03/31 10:47:32;;;;;;;;;;;;;;;9.73;59.20;99389.97;5037982;28;19929;-80
2022/03/31 10:49:57;;;;;;;;;;;;;;;9.69;59.46;99390.19;5028669;28;19944;-80
2022/03/31 10:52:23;;;;;;;;;;;;;;;9.60;59.11;99385.34;5029896;28;19925;-76
2022/03/31 10:54:49;;;;;;;;;;;;;;;9.69;59.70;99385.81;5026392;28;20325;-75
2022/03/31 10:57:15;;;;;;;;;;;;;;;9.69;59.56;99387.59;5041675;28;20017;-75
2022/03/31 10:59:42;;;;;;;;;;;;;;;9.79;58.33;99381.13;5025161;28;19991;-75
2022/03/31 11:02:09;;;;;;;;;;;;;;;9.83;58.44;99380.94;5024541;28;19921;-75
2022/03/31 11:04:44;;;;;;;;;;;;;;;9.81;58.60;99379.31;5030909;28;20098;-80
2022/03/31 11:07:13;;;;;;;;;;;;;;;9.84;57.88;99374.84;5030978;28;19968;-78
2022/03/31 11:09:39;;;;;;;;;;;;;;;9.96;59.16;99373.53;5028807;28;19936;-78
2022/03/31 11:12:04;;;;;;;;;;;;;;;9.80;58.45;99372.44;5042259;28;19925;-78
2022/03/31 11:14:29;;;;;;;;;;;;;;;9.85;58.44;99370.50;5031351;28;20336;-78
2022/03/31 11:16:55;;;;;;;;;;;;;;;9.75;57.26;99370.00;5023986;28;19921;-78
2022/03/31 11:19:20;;;;;;;;;;;;;;;9.70;57.34;99368.50;5030844;28;20378;-78
2022/03/31 11:21:46;;;;;;;;;;;;;;;9.61;56.94;99374.06;5022711;28;19983;-77
2022/03/31 11:24:12;;;;;;;;;;;;;;;9.76;57.22;99368.28;5021769;28;19921;-80
2022/03/31 11:26:44;;;;;;;;;;;;;;;9.90;57.54;99366.00;5027468;28;19928;-80
2022/03/31 11:29:18;;;;;;;;;;;;;;;9.79;58.04;99358.63;5028753;28;20020;-80
2022/03/31 11:31:47;;;;;;;;;;;;;;;9.77;58.66;99364.78;5031278;28;20480;-79
2022/03/31 11:34:23;;;;;;;;;;;;;;;9.68;58.43;99363.41;5032871;28;19988;-77
2022/03/31 11:36:50;;;;;;;;;;;;;;;9.70;57.17;99361.59;5030005;28;19963;-77
2022/03/31 11:39:17;;;;;;;;;;;;;;;9.77;58.66;99367.38;5031076;28;19963;-77
2022/03/31 11:41:42;;;;;;;;;;;;;;;9.82;59.66;99366.28;5020683;28;19960;-77
2022/03/31 11:44:08;;;;;;;;;;;;;;;9.65;58.54;99367.84;5024013;28;20410;-77
2022/03/31 11:46:47;;;;;;;;;;;;;;;9.62;60.60;99366.22;5012038;28;20500;-77
2022/03/31 11:49:26;;;;;;;;;;;;;;;9.75;59.40;99362.22;5029038;28;19931;-77
2022/03/31 11:51:52;;;;;;;;;;;;;;;9.63;58.76;99365.31;5029412;28;19932;-77
2022/03/31 11:54:18;;;;;;;;;;;;;;;9.77;59.09;99357.84;5030935;28;19921;-78
2022/03/31 11:56:44;;;;;;;;;;;;;;;9.70;58.97;99360.72;5030385;28;19917;-79
2022/03/31 11:59:09;;;;;;;;;;;;;;;9.65;58.63;99360.06;5031478;28;19909;-75
2022/03/31 12:01:45;;;;;;;;;;;;;;;9.76;58.87;99355.31;5016232;28;19921;-75
2022/03/31 12:04:20;;;;;;;;;;;;;;;9.73;58.82;99358.00;5034392;28;19929;-75
2022/03/31 12:06:47;;;;;;;;;;;;;;;9.70;58.53;99356.41;5027378;28;20030;-78
2022/03/31 12:09:13;;;;;;;;;;;;;;;9.73;57.79;99347.66;5035705;28;19944;-80
2022/03/31 12:11:38;;;;;;;;;;;;;;;9.74;58.82;99354.53;5031119;28;20390;-80
2022/03/31 12:14:04;;;;;;;;;;;;;;;9.62;58.20;99349.81;5029234;28;19929;-80
2022/03/31 12:16:29;;;;;;;;;;;;;;;9.89;58.43;99348.72;5022348;28;19999;-76
2022/03/31 12:18:55;;;;;;;;;;;;;;;9.75;59.06;99344.09;5029495;28;19928;-76
2022/03/31 12:21:21;;;;;;;;;;;;;;;9.78;58.69;99343.97;5026930;28;19979;-75
2022/03/31 12:23:47;;;;;;;;;;;;;;;9.74;58.21;99349.34;5029277;28;19956;-75
2022/03/31 12:26:15;;;;;;;;;;;;;;;9.83;58.08;99339.44;5027907;28;19925;-75
2022/03/31 12:28:41;;;;;;;;;;;;;;;9.82;59.45;99344.69;5036132;28;20984;-79
2022/03/31 12:31:06;;;;;;;;;;;;;;;9.89;58.96;99348.72;5027261;28;19932;-79
2022/03/31 12:33:36;;;;;;;;;;;;;;;9.72;58.94;99344.19;5028520;28;19929;-79
2022/03/31 12:36:04;;;;;;;;;;;;;;;9.68;59.44;99345.25;5027446;28;19929;-80
2022/03/31 12:38:35;;;;;;;;;;;;;;;9.60;58.39;99344.69;5029970;28;20374;-80
2022/03/31 12:41:01;;;;;;;;;;;;;;;9.63;59.11;99335.97;5034500;28;19928;-78
2022/03/31 12:43:26;;;;;;;;;;;;;;;9.56;58.30;99339.69;5029348;28;19929;-78
2022/03/31 12:45:52;;;;;;;;;;;;;;;9.63;58.59;99329.00;5026113;28;19952;-78
2022/03/31 12:48:18;;;;;;;;;;;;;;;9.70;59.16;99340.84;5020872;28;20406;-78
2022/03/31 12:50:44;;;;;;;;;;;;;;;9.70;57.92;99337.41;5020654;28;19928;-77
2022/03/31 12:53:10;;;;;;;;;;;;;;;9.71;58.48;99344.28;5026398;28;20022;-75
2022/03/31 12:55:36;;;;;;;;;;;;;;;9.49;59.46;99343.41;5023668;28;19921;-75
2022/03/31 12:58:03;;;;;;;;;;;;;;;9.44;59.36;99337.59;5037159;28;19917;-76